Time;durP1;ratioP1;P1;durP2;ratioP2;P2;SDS_P1;SDS_P2;PMS_P1;PMS_P2;Temp;Humidity;BMP_temperature;BMP_pressure;BME280_temperature;BME280_humidity;BME280_pressure;Samples;Min_cycle;Max_cycle;Signal;HPM_P1;HPM_P2
2021/10/05 00:01:31;;;;;;;1.23;0.30;;;20.10;99.90;;;;;;5009301;28;20030;-75
2021/10/05 00:03:57;;;;;;;1.88;0.50;;;20.10;99.90;;;;;;5008740;28;20088;-79
2021/10/05 00:06:23;;;;;;;1.23;0.43;;;20.10;99.90;;;;;;4997579;28;20034;-80
2021/10/05 00:08:48;;;;;;;0.77;0.30;;;20.10;99.90;;;;;;5007129;28;20116;-71
2021/10/05 00:11:14;;;;;;;1.50;0.40;;;20.00;99.90;;;;;;5012895;28;20464;-71
2021/10/05 00:13:40;;;;;;;1.00;0.35;;;20.00;99.90;;;;;;5003404;28;20034;-70
2021/10/05 00:16:07;;;;;;;1.77;0.60;;;20.00;99.90;;;;;;5008038;28;20030;-71
2021/10/05 00:18:33;;;;;;;1.08;0.40;;;20.00;99.90;;;;;;5007912;28;20041;-72
2021/10/05 00:20:58;;;;;;;1.02;0.40;;;20.00;99.90;;;;;;5008441;28;20049;-72
2021/10/05 00:23:24;;;;;;;1.00;0.50;;;20.00;99.90;;;;;;5009284;28;20053;-73
2021/10/05 00:25:49;;;;;;;0.95;0.43;;;20.00;99.90;;;;;;5008472;28;20231;-76
2021/10/05 00:28:15;;;;;;;2.80;0.73;;;20.00;99.90;;;;;;5007793;28;20068;-76
2021/10/05 00:30:41;;;;;;;1.70;0.52;;;20.00;99.90;;;;;;5007661;28;20036;-78
2021/10/05 00:33:06;;;;;;;1.40;0.47;;;20.00;99.90;;;;;;5008891;28;20037;-77
2021/10/05 00:35:32;;;;;;;1.88;0.68;;;20.00;99.90;;;;;;5009619;28;20041;-75
2021/10/05 00:38:00;;;;;;;1.00;0.60;;;19.90;99.90;;;;;;5008014;28;20061;-76
2021/10/05 00:40:26;;;;;;;0.80;0.40;;;19.90;99.90;;;;;;4998652;28;20070;-73
2021/10/05 00:42:52;;;;;;;2.17;0.68;;;19.90;99.90;;;;;;4997331;28;20089;-75
2021/10/05 00:45:17;;;;;;;1.30;0.47;;;19.90;99.90;;;;;;4997182;28;20034;-77
2021/10/05 00:47:43;;;;;;;1.17;0.40;;;19.90;99.90;;;;;;4998011;28;20070;-78
2021/10/05 00:50:09;;;;;;;2.25;0.43;;;19.90;99.90;;;;;;4996965;28;20042;-78
2021/10/05 00:52:36;;;;;;;0.93;0.40;;;19.90;99.90;;;;;;4998440;28;20113;-74
2021/10/05 00:55:03;;;;;;;3.42;0.60;;;19.90;99.90;;;;;;5007391;28;20092;-74
2021/10/05 00:57:29;;;;;;;1.13;0.45;;;19.80;99.90;;;;;;5007473;28;20358;-74
2021/10/05 00:59:55;;;;;;;2.05;0.60;;;19.80;99.90;;;;;;5007666;28;20041;-73
2021/10/05 01:02:20;;;;;;;1.02;0.40;;;19.80;99.90;;;;;;5008896;28;20034;-73
2021/10/05 01:04:46;;;;;;;1.27;0.38;;;19.80;99.90;;;;;;5006686;28;20033;-73
2021/10/05 01:07:16;;;;;;;1.85;0.40;;;19.80;99.90;;;;;;5007100;28;20033;-73
2021/10/05 01:09:43;;;;;;;2.17;0.57;;;19.80;99.90;;;;;;5006976;28;20030;-73
2021/10/05 01:12:09;;;;;;;1.33;0.38;;;19.80;99.90;;;;;;5007252;28;20204;-73
2021/10/05 01:14:35;;;;;;;1.23;0.30;;;19.80;99.90;;;;;;5008065;28;20105;-77
2021/10/05 01:17:01;;;;;;;3.33;0.55;;;19.80;99.90;;;;;;5003785;28;20034;-75
2021/10/05 01:19:27;;;;;;;1.55;0.43;;;19.80;99.90;;;;;;5007161;28;20065;-74
2021/10/05 01:21:53;;;;;;;1.17;0.47;;;19.70;99.90;;;;;;5007871;28;20444;-75
2021/10/05 01:24:21;;;;;;;2.22;0.70;;;19.70;99.90;;;;;;5007008;28;20029;-75
2021/10/05 01:26:47;;;;;;;2.08;0.43;;;19.70;99.90;;;;;;5006564;28;20053;-74
2021/10/05 01:29:16;;;;;;;2.00;0.50;;;19.70;99.90;;;;;;5008065;28;20516;-73
2021/10/05 01:31:46;;;;;;;2.60;0.45;;;19.70;99.90;;;;;;5007082;28;20493;-73
2021/10/05 01:34:12;;;;;;;2.33;0.38;;;19.70;99.90;;;;;;5006928;28;20436;-73
2021/10/05 01:36:38;;;;;;;1.33;0.32;;;19.70;99.90;;;;;;5007465;28;20038;-74
2021/10/05 01:39:24;;;;;;;1.70;0.50;;;19.60;99.90;;;;;;5007763;28;20466;-73
2021/10/05 01:41:51;;;;;;;1.30;0.40;;;19.60;99.90;;;;;;5007580;28;20038;-74
2021/10/05 01:44:17;;;;;;;1.85;0.50;;;19.60;99.90;;;;;;5007233;28;20113;-74
2021/10/05 01:46:43;;;;;;;0.98;0.35;;;19.60;99.90;;;;;;5006942;28;20109;-74
2021/10/05 01:49:13;;;;;;;1.27;0.40;;;19.60;99.90;;;;;;4979050;28;20030;-74
2021/10/05 01:51:39;;;;;;;1.02;0.40;;;19.60;99.90;;;;;;5006316;28;20537;-73
2021/10/05 01:54:05;;;;;;;1.02;0.40;;;19.60;99.90;;;;;;4997995;28;20026;-73
2021/10/05 01:56:30;;;;;;;1.10;0.40;;;19.60;99.90;;;;;;5005800;28;20474;-73
2021/10/05 01:58:56;;;;;;;1.27;0.30;;;19.60;99.90;;;;;;5007234;28;20053;-74
2021/10/05 02:01:21;;;;;;;0.70;0.30;;;19.50;99.90;;;;;;5008240;28;20041;-83
2021/10/05 02:03:47;;;;;;;1.30;0.50;;;19.50;99.90;;;;;;4999037;28;20454;-73
2021/10/05 02:06:13;;;;;;;0.65;0.30;;;19.50;99.90;;;;;;4996334;28;20081;-76
2021/10/05 02:08:38;;;;;;;1.60;0.50;;;19.50;99.90;;;;;;4997851;28;20048;-78
2021/10/05 02:11:04;;;;;;;1.58;0.50;;;19.50;99.90;;;;;;5003776;28;20056;-78
2021/10/05 02:13:30;;;;;;;0.82;0.40;;;19.50;99.90;;;;;;4996196;28;20094;-78
2021/10/05 02:15:56;;;;;;;1.35;0.40;;;19.50;99.90;;;;;;4998206;28;20113;-72
2021/10/05 02:18:21;;;;;;;0.80;0.40;;;19.50;99.90;;;;;;5001842;28;20065;-83
2021/10/05 02:20:47;;;;;;;1.35;0.32;;;19.50;99.90;;;;;;4991795;28;20029;-72
2021/10/05 02:23:12;;;;;;;0.85;0.30;;;19.50;99.90;;;;;;4996429;28;20018;-72
2021/10/05 02:25:38;;;;;;;1.63;0.50;;;19.40;99.90;;;;;;5010530;28;20069;-73
2021/10/05 02:28:04;;;;;;;1.38;0.25;;;19.50;99.90;;;;;;5011093;28;20113;-73
2021/10/05 02:30:30;;;;;;;1.98;0.57;;;19.50;99.90;;;;;;4985932;28;20034;-76
2021/10/05 02:32:56;;;;;;;1.00;0.40;;;19.40;99.90;;;;;;4975724;28;20466;-73
2021/10/05 02:35:22;;;;;;;2.50;0.30;;;19.40;99.90;;;;;;4992414;28;20041;-76
2021/10/05 02:37:48;;;;;;;1.98;0.40;;;19.40;99.90;;;;;;4981960;28;20030;-79
2021/10/05 02:40:13;;;;;;;1.85;0.60;;;19.40;99.90;;;;;;5011443;28;20477;-77
2021/10/05 02:42:39;;;;;;;1.73;0.50;;;19.40;99.90;;;;;;5002216;28;20023;-79
2021/10/05 02:45:06;;;;;;;0.65;0.20;;;19.40;99.90;;;;;;4991836;28;20033;-77
2021/10/05 02:47:32;;;;;;;0.85;0.30;;;19.40;99.90;;;;;;4995648;28;20018;-72
2021/10/05 02:49:58;;;;;;;0.90;0.32;;;19.40;99.90;;;;;;5011506;28;20033;-76
2021/10/05 02:52:25;;;;;;;1.88;0.45;;;19.40;99.90;;;;;;4997921;28;20038;-81
2021/10/05 02:54:51;;;;;;;1.02;0.30;;;19.40;99.90;;;;;;4991886;28;20371;-77
2021/10/05 02:57:19;;;;;;;1.95;0.40;;;19.40;99.90;;;;;;4996284;28;20054;-84
2021/10/05 02:59:46;;;;;;;1.40;0.45;;;19.40;99.90;;;;;;4993215;28;20026;-80
2021/10/05 03:02:13;;;;;;;1.30;0.47;;;19.30;99.90;;;;;;4991491;28;20034;-85
2021/10/05 03:04:39;;;;;;;2.15;0.70;;;19.30;99.90;;;;;;5003235;28;20377;-82
2021/10/05 03:07:05;;;;;;;0.73;0.25;;;19.30;99.90;;;;;;4994657;28;20057;-83
2021/10/05 03:09:32;;;;;;;1.45;0.30;;;19.30;99.90;;;;;;5014570;28;20497;-80
2021/10/05 03:11:58;;;;;;;0.85;0.30;;;19.30;99.90;;;;;;5015478;28;20030;-85
2021/10/05 03:14:23;;;;;;;0.90;0.25;;;19.30;99.90;;;;;;5015145;28;20072;-79
2021/10/05 03:16:49;;;;;;;1.25;0.50;;;19.30;99.90;;;;;;5014694;28;20026;-85
2021/10/05 03:19:14;;;;;;;0.80;0.50;;;19.30;99.90;;;;;;5014742;28;20026;-87
2021/10/05 03:21:40;;;;;;;0.60;0.30;;;19.30;99.90;;;;;;5014389;28;20509;-85
2021/10/05 03:24:07;;;;;;;2.10;0.57;;;19.30;99.90;;;;;;5014552;28;20382;-86
2021/10/05 03:26:33;;;;;;;1.38;0.40;;;19.30;99.90;;;;;;5014516;28;20114;-87
2021/10/05 03:28:59;;;;;;;1.70;0.40;;;19.30;99.90;;;;;;5014598;28;20026;-86
2021/10/05 03:31:24;;;;;;;1.95;0.40;;;19.20;99.90;;;;;;5014791;28;20038;-87
2021/10/05 03:33:50;;;;;;;1.33;0.60;;;19.20;99.90;;;;;;5014356;28;20025;-80
2021/10/05 03:36:16;;;;;;;2.55;0.50;;;19.20;99.90;;;;;;5014395;28;20105;-81
2021/10/05 03:38:42;;;;;;;1.48;0.30;;;19.20;99.90;;;;;;4996642;28;20535;-80
2021/10/05 03:41:09;;;;;;;1.25;0.40;;;19.20;99.90;;;;;;5014348;28;20084;-77
2021/10/05 03:43:35;;;;;;;1.27;0.40;;;19.20;99.90;;;;;;5013986;28;20022;-80
2021/10/05 03:46:01;;;;;;;1.45;0.40;;;19.20;99.90;;;;;;5014189;28;20037;-76
2021/10/05 03:48:27;;;;;;;0.95;0.38;;;19.20;99.90;;;;;;5013955;28;20431;-78
2021/10/05 03:50:53;;;;;;;1.45;0.50;;;19.20;99.90;;;;;;5014411;28;20497;-75
2021/10/05 03:53:20;;;;;;;1.65;0.40;;;19.20;99.90;;;;;;5014096;28;20478;-77
2021/10/05 03:55:51;;;;;;;1.00;0.30;;;19.20;99.90;;;;;;5013727;28;20557;-78
2021/10/05 03:58:17;;;;;;;2.05;0.50;;;19.20;99.90;;;;;;5013879;28;20478;-77
2021/10/05 04:00:43;;;;;;;1.10;0.30;;;19.20;99.90;;;;;;4996201;28;20046;-77
2021/10/05 04:03:09;;;;;;;2.22;0.52;;;19.20;99.90;;;;;;5013823;28;20031;-79
2021/10/05 04:05:35;;;;;;;1.30;0.55;;;19.10;99.90;;;;;;5013656;28;20022;-80
2021/10/05 04:08:01;;;;;;;2.08;0.30;;;19.10;99.90;;;;;;5013644;28;20038;-75
2021/10/05 04:10:27;;;;;;;1.80;0.40;;;19.10;99.90;;;;;;4995967;28;20042;-74
2021/10/05 04:12:53;;;;;;;1.35;0.50;;;19.10;99.90;;;;;;5014033;28;20466;-78
2021/10/05 04:15:19;;;;;;;1.00;0.40;;;19.10;99.90;;;;;;5013608;28;20037;-77
2021/10/05 04:17:44;;;;;;;2.33;0.50;;;19.10;99.90;;;;;;5012919;28;20018;-75
2021/10/05 04:20:11;;;;;;;0.80;0.30;;;19.10;99.90;;;;;;5012994;28;20088;-78
2021/10/05 04:22:37;;;;;;;1.00;0.30;;;19.10;99.90;;;;;;5013215;28;20026;-80
2021/10/05 04:25:06;;;;;;;1.13;0.43;;;19.10;99.90;;;;;;5013738;28;20025;-80
2021/10/05 04:27:32;;;;;;;1.95;0.60;;;19.10;99.90;;;;;;5013305;28;20108;-81
2021/10/05 04:29:58;;;;;;;0.52;0.30;;;19.10;99.90;;;;;;5013403;28;20075;-80
2021/10/05 04:32:24;;;;;;;1.92;0.45;;;19.00;99.90;;;;;;5013555;28;20033;-82
2021/10/05 04:34:49;;;;;;;1.20;0.40;;;19.00;99.90;;;;;;5013121;28;20056;-79
2021/10/05 04:37:15;;;;;;;3.58;0.60;;;19.00;99.90;;;;;;5013233;28;20033;-82
2021/10/05 04:39:41;;;;;;;1.40;0.45;;;19.00;99.90;;;;;;5013011;28;20034;-80
2021/10/05 04:42:07;;;;;;;2.33;0.40;;;19.00;99.90;;;;;;5013081;28;20109;-77
2021/10/05 04:44:33;;;;;;;1.42;0.32;;;19.00;99.90;;;;;;5012741;28;20022;-81
2021/10/05 04:46:58;;;;;;;1.50;0.50;;;19.00;99.90;;;;;;5013800;28;20030;-80
2021/10/05 04:49:24;;;;;;;2.55;0.50;;;19.00;99.90;;;;;;4995902;28;20053;-75
2021/10/05 04:51:50;;;;;;;1.10;0.30;;;19.00;99.90;;;;;;5012963;28;20124;-74
2021/10/05 04:54:15;;;;;;;1.25;0.47;;;19.00;99.90;;;;;;5012902;28;20049;-74
2021/10/05 04:56:41;;;;;;;2.05;0.55;;;19.00;99.90;;;;;;5012637;28;20433;-71
2021/10/05 04:59:07;;;;;;;8.23;0.60;;;19.00;99.90;;;;;;5012833;28;20049;-76
2021/10/05 05:01:33;;;;;;;0.77;0.40;;;19.00;99.90;;;;;;5012554;28;20030;-74
2021/10/05 05:03:58;;;;;;;1.10;0.40;;;18.90;99.90;;;;;;5012862;28;20022;-81
2021/10/05 05:06:24;;;;;;;1.13;0.30;;;19.00;99.90;;;;;;5013387;28;20030;-77
2021/10/05 05:08:50;;;;;;;0.50;0.30;;;18.90;99.90;;;;;;5012512;28;20042;-77
2021/10/05 05:11:15;;;;;;;3.28;0.47;;;18.90;99.90;;;;;;5012793;28;20033;-76
2021/10/05 05:13:41;;;;;;;0.98;0.32;;;18.90;99.90;;;;;;5012596;28;20030;-76
2021/10/05 05:16:07;;;;;;;1.20;0.40;;;18.90;99.90;;;;;;5012716;28;20029;-76
2021/10/05 05:18:32;;;;;;;1.63;0.50;;;18.90;99.90;;;;;;5012355;28;20470;-74
2021/10/05 05:20:58;;;;;;;2.58;0.40;;;18.90;99.90;;;;;;5012535;28;20030;-74
2021/10/05 05:23:24;;;;;;;2.75;0.60;;;18.90;99.90;;;;;;5012849;28;20076;-77
2021/10/05 05:25:49;;;;;;;1.13;0.50;;;18.90;99.90;;;;;;5012389;28;20033;-76
2021/10/05 05:28:15;;;;;;;1.98;0.50;;;18.90;99.90;;;;;;5012491;28;20029;-78
2021/10/05 05:30:41;;;;;;;1.60;0.40;;;18.90;99.90;;;;;;5011731;28;20100;-78
2021/10/05 05:33:07;;;;;;;1.65;0.30;;;18.90;99.90;;;;;;5012283;28;20534;-79
2021/10/05 05:35:33;;;;;;;2.70;0.52;;;18.90;99.90;;;;;;5012153;28;20026;-79
2021/10/05 05:37:58;;;;;;;0.98;0.50;;;18.90;99.90;;;;;;5012204;28;20029;-78
2021/10/05 05:40:24;;;;;;;0.95;0.30;;;18.90;99.90;;;;;;5012462;28;20109;-79
2021/10/05 05:42:50;;;;;;;1.23;0.43;;;18.90;99.90;;;;;;5011963;28;20033;-78
2021/10/05 05:45:16;;;;;;;1.23;0.35;;;18.90;99.90;;;;;;5012222;28;20029;-77
2021/10/05 05:47:41;;;;;;;1.65;0.52;;;18.90;99.90;;;;;;5011933;28;20441;-77
2021/10/05 05:50:09;;;;;;;2.17;0.50;;;18.90;99.90;;;;;;5012031;28;20378;-79
2021/10/05 05:52:35;;;;;;;2.17;0.60;;;18.80;99.90;;;;;;5011994;28;20363;-79
2021/10/05 05:55:00;;;;;;;5.00;0.40;;;18.80;99.90;;;;;;5012011;28;20167;-79
2021/10/05 05:57:26;;;;;;;2.40;0.70;;;18.90;99.90;;;;;;5011801;28;20101;-75
2021/10/05 05:59:52;;;;;;;1.65;0.70;;;18.80;99.90;;;;;;5012312;28;20018;-73
2021/10/05 06:02:17;;;;;;;1.98;0.70;;;18.80;99.90;;;;;;5011876;28;20037;-78
2021/10/05 06:04:43;;;;;;;1.25;0.50;;;18.80;99.90;;;;;;5011695;28;20029;-78
2021/10/05 06:07:11;;;;;;;2.42;0.47;;;18.80;99.90;;;;;;5011788;28;20033;-78
2021/10/05 06:09:36;;;;;;;2.10;0.45;;;18.80;99.90;;;;;;5011434;28;20038;-78
2021/10/05 06:12:05;;;;;;;1.52;0.50;;;18.80;99.90;;;;;;5011826;28;20042;-78
2021/10/05 06:14:31;;;;;;;6.25;0.68;;;18.80;99.90;;;;;;4994030;28;20029;-76
2021/10/05 06:16:58;;;;;;;2.40;0.40;;;18.80;99.90;;;;;;5011861;28;20026;-76
2021/10/05 06:19:24;;;;;;;1.23;0.43;;;18.80;99.90;;;;;;5011913;28;20467;-76
2021/10/05 06:21:49;;;;;;;3.97;0.65;;;18.80;99.90;;;;;;5011686;28;20061;-76
2021/10/05 06:24:15;;;;;;;1.58;0.50;;;18.80;99.90;;;;;;5011793;28;20780;-76
2021/10/05 06:26:41;;;;;;;1.00;0.50;;;18.80;99.90;;;;;;5011473;28;20033;-78
2021/10/05 06:29:07;;;;;;;3.55;0.70;;;18.80;99.90;;;;;;5003107;28;20038;-77
2021/10/05 06:31:32;;;;;;;0.90;0.50;;;18.80;99.90;;;;;;4991592;28;20054;-76
2021/10/05 06:33:58;;;;;;;1.95;0.52;;;18.80;99.90;;;;;;4991920;28;20026;-80
2021/10/05 06:36:24;;;;;;;1.35;0.40;;;18.80;99.90;;;;;;4992459;28;20078;-73
2021/10/05 06:38:49;;;;;;;5.10;1.00;;;18.80;99.90;;;;;;4991649;28;20399;-73
2021/10/05 06:41:15;;;;;;;4.38;0.90;;;18.80;99.90;;;;;;4992035;28;20054;-72
2021/10/05 06:43:41;;;;;;;3.53;0.80;;;18.70;99.90;;;;;;4995839;28;20034;-73
2021/10/05 06:46:06;;;;;;;3.08;0.88;;;18.70;99.90;;;;;;4995803;28;20421;-73
2021/10/05 06:48:32;;;;;;;5.10;1.00;;;18.60;99.90;;;;;;4995311;28;20030;-73
2021/10/05 06:50:58;;;;;;;2.30;0.88;;;18.60;99.90;;;;;;4995477;28;20065;-73
2021/10/05 06:53:24;;;;;;;4.07;1.02;;;18.60;99.90;;;;;;4996086;28;20022;-74
2021/10/05 06:55:50;;;;;;;2.85;0.75;;;18.60;99.90;;;;;;4995668;28;20030;-74
2021/10/05 06:58:17;;;;;;;4.18;1.27;;;18.50;99.90;;;;;;4995748;28;20109;-72
2021/10/05 07:00:43;;;;;;;2.63;0.65;;;18.50;99.90;;;;;;4995339;28;20444;-72
2021/10/05 07:03:09;;;;;;;4.93;0.85;;;18.50;99.90;;;;;;4995492;28;20061;-73
2021/10/05 07:05:35;;;;;;;2.78;1.20;;;18.40;99.90;;;;;;5002741;28;20038;-73
2021/10/05 07:08:05;;;;;;;4.75;0.98;;;18.40;99.90;;;;;;5005558;28;20041;-75
2021/10/05 07:10:31;;;;;;;2.90;0.85;;;18.40;99.90;;;;;;5014845;28;20105;-74
2021/10/05 07:12:57;;;;;;;3.95;0.98;;;18.40;99.90;;;;;;5015066;28;20041;-76
2021/10/05 07:15:22;;;;;;;2.55;0.77;;;18.30;99.90;;;;;;5009666;28;20101;-76
2021/10/05 07:17:52;;;;;;;4.00;0.80;;;18.30;99.90;;;;;;4995260;28;20505;-76
2021/10/05 07:20:18;;;;;;;3.53;0.98;;;18.30;99.90;;;;;;5000405;28;20022;-77
2021/10/05 07:22:43;;;;;;;3.85;1.10;;;18.40;99.90;;;;;;5009646;28;20084;-75
2021/10/05 07:25:09;;;;;;;5.22;0.90;;;18.40;99.90;;;;;;5014831;28;20029;-77
2021/10/05 07:27:35;;;;;;;2.83;0.85;;;18.40;99.90;;;;;;5011952;28;20018;-73
2021/10/05 07:30:03;;;;;;;5.88;0.98;;;18.40;99.90;;;;;;5004733;28;20109;-76
2021/10/05 07:32:29;;;;;;;2.88;1.00;;;18.40;99.90;;;;;;5011097;28;20097;-77
2021/10/05 07:34:55;;;;;;;5.05;1.10;;;18.50;99.90;;;;;;5003579;28;20034;-78
2021/10/05 07:37:20;;;;;;;4.03;0.77;;;18.50;99.90;;;;;;5000437;28;20069;-78
2021/10/05 07:39:46;;;;;;;1.30;0.70;;;18.50;99.90;;;;;;5006070;28;20112;-78
2021/10/05 07:42:13;;;;;;;1.95;0.70;;;18.50;99.90;;;;;;5007914;28;20569;-77
2021/10/05 07:44:39;;;;;;;1.65;0.70;;;18.50;99.90;;;;;;5014180;28;20045;-78
2021/10/05 07:47:05;;;;;;;5.50;0.95;;;18.50;99.90;;;;;;5014418;28;20069;-77
2021/10/05 07:49:33;;;;;;;3.78;1.20;;;18.50;99.90;;;;;;5014097;28;20034;-77
2021/10/05 07:51:59;;;;;;;2.92;0.80;;;18.50;99.90;;;;;;5014187;28;20030;-78
2021/10/05 07:54:25;;;;;;;2.80;0.73;;;18.60;99.90;;;;;;5014259;28;20481;-77
2021/10/05 07:56:51;;;;;;;3.47;0.70;;;18.60;99.90;;;;;;5014067;28;20033;-77
2021/10/05 07:59:16;;;;;;;3.65;0.85;;;18.60;99.90;;;;;;4996643;28;20028;-77
2021/10/05 08:01:48;;;;;;;2.33;0.65;;;18.60;99.90;;;;;;5013761;28;20026;-76
2021/10/05 08:04:14;;;;;;;2.53;0.57;;;18.60;99.90;;;;;;5014112;28;20116;-75
2021/10/05 08:06:39;;;;;;;3.20;0.98;;;18.60;99.90;;;;;;5013784;28;20172;-73
2021/10/05 08:09:05;;;;;;;6.03;1.08;;;18.60;99.90;;;;;;5013868;28;20584;-73
2021/10/05 08:11:31;;;;;;;2.05;0.63;;;18.70;99.90;;;;;;5013660;28;20046;-74
2021/10/05 08:13:56;;;;;;;5.45;0.70;;;18.60;99.90;;;;;;5013816;28;20018;-74
2021/10/05 08:16:30;;;;;;;2.40;0.70;;;18.60;99.90;;;;;;5014120;28;20101;-74
2021/10/05 08:18:56;;;;;;;2.17;0.70;;;18.70;99.90;;;;;;5014034;28;20041;-73
2021/10/05 08:21:21;;;;;;;1.55;0.60;;;18.70;99.90;;;;;;5014248;28;20101;-74
2021/10/05 08:23:50;;;;;;;3.35;0.52;;;18.70;99.90;;;;;;5012618;28;20442;-73
2021/10/05 08:26:16;;;;;;;3.03;0.60;;;18.70;99.90;;;;;;5013530;28;20480;-73
2021/10/05 08:28:42;;;;;;;1.55;0.65;;;18.70;99.90;;;;;;5013339;28;20037;-73
2021/10/05 08:31:08;;;;;;;1.55;0.70;;;18.70;99.90;;;;;;5013446;28;20041;-73
2021/10/05 08:33:34;;;;;;;2.08;0.70;;;18.70;99.90;;;;;;5013160;28;20104;-73
2021/10/05 08:35:59;;;;;;;1.58;0.57;;;18.70;99.90;;;;;;5013451;28;20034;-73
2021/10/05 08:38:25;;;;;;;2.95;0.80;;;18.70;99.90;;;;;;5013668;28;20068;-73
2021/10/05 08:40:51;;;;;;;2.33;0.60;;;18.80;99.90;;;;;;5013625;28;20034;-73
2021/10/05 08:43:20;;;;;;;2.13;0.60;;;18.80;99.90;;;;;;5013290;28;20026;-73
2021/10/05 08:45:46;;;;;;;2.15;0.60;;;18.80;99.90;;;;;;4995410;28;20034;-73
2021/10/05 08:48:12;;;;;;;2.05;0.60;;;18.80;99.90;;;;;;5013174;28;20094;-74
2021/10/05 08:50:38;;;;;;;1.77;0.68;;;18.80;99.90;;;;;;5006405;28;20048;-72
2021/10/05 08:53:04;;;;;;;2.17;0.50;;;18.80;99.90;;;;;;5010398;28;20409;-73
2021/10/05 08:55:30;;;;;;;1.67;0.60;;;18.80;99.90;;;;;;5012840;28;20029;-73
2021/10/05 08:57:55;;;;;;;2.50;0.70;;;18.80;99.90;;;;;;5013169;28;20409;-73
2021/10/05 09:00:22;;;;;;;2.75;0.70;;;18.80;99.90;;;;;;5013271;28;20030;-72
2021/10/05 09:02:53;;;;;;;2.17;0.60;;;18.80;99.90;;;;;;5012398;28;20061;-76
2021/10/05 09:05:20;;;;;;;1.85;0.70;;;18.80;99.90;;;;;;5012193;28;20355;-69
2021/10/05 09:07:49;;;;;;;3.97;0.75;;;18.90;99.90;;;;;;5012447;28;20450;-71
2021/10/05 09:10:16;;;;;;;2.75;0.70;;;18.90;99.90;;;;;;5006223;28;20038;-69
2021/10/05 09:12:43;;;;;;;1.88;0.50;;;18.90;99.90;;;;;;5002206;28;20096;-69
2021/10/05 09:15:10;;;;;;;2.60;0.80;;;18.90;99.90;;;;;;5008871;28;20038;-69
2021/10/05 09:17:36;;;;;;;3.40;0.70;;;18.90;99.90;;;;;;4995059;28;20021;-70
2021/10/05 09:20:24;;;;;;;2.45;0.75;;;18.90;99.90;;;;;;5012374;28;20018;-70
2021/10/05 09:23:07;;;;;;;1.55;0.50;;;18.90;99.90;;;;;;4999251;28;20474;-70
2021/10/05 09:25:42;;;;;;;2.40;0.85;;;18.90;99.90;;;;;;4992999;28;20041;-70
2021/10/05 09:28:22;;;;;;;1.05;0.63;;;18.90;99.90;;;;;;4992969;28;20026;-70
2021/10/05 09:31:06;;;;;;;2.50;0.80;;;18.90;99.90;;;;;;4992584;28;20081;-71
2021/10/05 09:33:33;;;;;;;5.03;1.13;;;18.90;99.90;;;;;;4992631;28;20022;-70
2021/10/05 09:36:00;;;;;;;2.63;0.80;;;18.90;99.90;;;;;;4992803;28;20038;-70
2021/10/05 09:38:27;;;;;;;2.92;0.77;;;18.90;99.90;;;;;;4992761;28;20493;-71
2021/10/05 09:41:02;;;;;;;1.92;0.73;;;18.90;99.90;;;;;;4992807;28;20026;-70
2021/10/05 09:43:30;;;;;;;3.50;1.00;;;19.00;99.90;;;;;;5009231;28;20064;-70
2021/10/05 09:46:15;;;;;;;4.30;0.85;;;19.00;99.90;;;;;;5012211;28;20029;-70
2021/10/05 09:48:42;;;;;;;2.47;0.50;;;19.00;99.90;;;;;;5011914;28;20033;-70
2021/10/05 09:51:24;;;;;;;1.75;0.80;;;19.00;99.90;;;;;;5011923;28;20465;-70
2021/10/05 09:53:54;;;;;;;1.70;0.60;;;19.00;99.90;;;;;;5005973;28;20033;-70
2021/10/05 09:56:21;;;;;;;1.48;0.75;;;19.00;99.90;;;;;;5006405;28;20029;-70
2021/10/05 09:58:49;;;;;;;3.88;0.90;;;19.00;99.90;;;;;;5011821;28;20022;-71
2021/10/05 10:01:18;;;;;;;3.90;1.00;;;19.00;99.90;;;;;;5005426;28;20049;-70
2021/10/05 10:03:45;;;;;;;2.53;0.82;;;19.00;99.90;;;;;;4992027;28;20022;-71
2021/10/05 10:06:12;;;;;;;3.60;1.00;;;19.00;99.90;;;;;;4992295;28;20109;-71
2021/10/05 10:08:42;;;;;;;2.85;0.85;;;19.00;99.90;;;;;;4992076;28;20061;-70
2021/10/05 10:11:08;;;;;;;2.72;0.80;;;19.00;99.90;;;;;;4974760;28;20034;-71
2021/10/05 10:13:34;;;;;;;1.35;0.70;;;19.00;99.90;;;;;;4992108;28;20022;-71
2021/10/05 10:16:00;;;;;;;1.77;0.80;;;19.00;99.90;;;;;;4992150;28;20026;-70
2021/10/05 10:18:26;;;;;;;2.15;0.80;;;19.00;99.90;;;;;;4991871;28;20023;-71
2021/10/05 10:21:01;;;;;;;4.20;0.85;;;19.00;99.90;;;;;;4992497;28;20410;-71
2021/10/05 10:23:28;;;;;;;4.13;1.05;;;19.00;99.90;;;;;;4992009;28;20026;-71
2021/10/05 10:26:03;;;;;;;2.88;0.52;;;19.00;99.90;;;;;;4992447;28;20034;-70
2021/10/05 10:28:33;;;;;;;1.70;0.80;;;19.00;99.90;;;;;;4992025;28;20048;-71
2021/10/05 10:31:03;;;;;;;1.45;0.60;;;19.00;99.90;;;;;;4992164;28;20062;-70
2021/10/05 10:33:48;;;;;;;1.58;0.52;;;19.00;99.90;;;;;;4992019;28;20069;-70
2021/10/05 10:36:16;;;;;;;1.40;0.60;;;19.00;99.90;;;;;;4992150;28;20033;-70
2021/10/05 10:38:42;;;;;;;2.30;0.57;;;19.00;99.90;;;;;;4991815;28;20446;-70
2021/10/05 10:41:20;;;;;;;2.90;0.50;;;19.00;99.90;;;;;;4992018;28;20015;-70
2021/10/05 10:43:58;;;;;;;2.30;0.60;;;19.00;99.90;;;;;;4974377;28;20088;-71
2021/10/05 10:46:28;;;;;;;1.73;0.57;;;19.00;99.90;;;;;;4974707;28;20497;-71
2021/10/05 10:48:57;;;;;;;1.83;0.63;;;19.00;99.90;;;;;;4992242;28;20034;-71
2021/10/05 10:51:28;;;;;;;2.60;0.63;;;19.00;99.90;;;;;;4992252;28;20030;-71
2021/10/05 10:53:57;;;;;;;2.70;0.65;;;19.00;99.90;;;;;;4991960;28;20054;-74
2021/10/05 10:56:36;;;;;;;1.40;0.50;;;19.00;99.90;;;;;;4992268;28;20023;-69
2021/10/05 10:59:06;;;;;;;4.85;0.80;;;19.00;99.90;;;;;;4991841;28;20026;-69
2021/10/05 11:01:45;;;;;;;2.08;0.82;;;19.00;99.90;;;;;;4991699;28;20409;-71
2021/10/05 11:04:13;;;;;;;1.88;0.60;;;19.00;99.90;;;;;;4991745;28;20023;-70
2021/10/05 11:06:43;;;;;;;2.35;0.80;;;19.00;99.90;;;;;;4991633;28;20027;-70
2021/10/05 11:09:08;;;;;;;1.45;0.50;;;19.00;99.90;;;;;;4991587;28;20069;-70
2021/10/05 11:11:57;;;;;;;1.17;0.60;;;19.10;99.90;;;;;;4991404;28;20038;-69
2021/10/05 11:14:26;;;;;;;2.72;0.52;;;19.10;99.90;;;;;;4991937;28;20030;-70
2021/10/05 11:17:06;;;;;;;3.00;0.70;;;19.00;99.90;;;;;;4991935;28;20023;-72
2021/10/05 11:19:34;;;;;;;3.10;0.60;;;19.10;99.90;;;;;;4991406;28;20026;-69
2021/10/05 11:22:03;;;;;;;1.25;0.70;;;19.10;99.90;;;;;;4991563;28;20030;-70
2021/10/05 11:24:37;;;;;;;2.05;0.60;;;19.10;99.90;;;;;;4991277;28;20037;-70
2021/10/05 11:27:24;;;;;;;3.13;1.00;;;19.10;99.90;;;;;;4991609;28;20098;-70
2021/10/05 11:29:51;;;;;;;2.13;0.80;;;19.10;99.90;;;;;;4994713;28;20113;-69
2021/10/05 11:32:19;;;;;;;1.63;0.50;;;19.10;99.90;;;;;;4994999;28;20455;-70
2021/10/05 11:34:47;;;;;;;2.00;0.60;;;19.10;99.90;;;;;;4994840;28;20492;-70
2021/10/05 11:37:14;;;;;;;3.67;0.70;;;19.10;99.90;;;;;;4994862;28;20091;-70
2021/10/05 11:39:42;;;;;;;2.15;0.60;;;19.10;99.90;;;;;;5003359;28;20022;-71
2021/10/05 11:42:11;;;;;;;1.90;0.60;;;19.10;99.90;;;;;;5002045;28;20026;-70
2021/10/05 11:44:43;;;;;;;1.83;0.57;;;19.10;99.90;;;;;;5002865;28;20026;-70
2021/10/05 11:47:19;;;;;;;1.88;0.60;;;19.10;99.90;;;;;;5014154;28;20030;-70
2021/10/05 11:49:48;;;;;;;1.45;0.60;;;19.10;99.90;;;;;;5014052;28;20346;-70
2021/10/05 11:52:20;;;;;;;2.60;0.98;;;19.10;99.90;;;;;;5014218;28;20126;-70
2021/10/05 11:54:49;;;;;;;1.67;0.60;;;19.10;99.90;;;;;;5013952;28;20583;-69
2021/10/05 11:57:21;;;;;;;1.83;0.73;;;19.10;99.90;;;;;;5014132;28;20034;-71
2021/10/05 11:59:47;;;;;;;2.00;0.60;;;19.20;99.90;;;;;;5013904;28;20385;-71
2021/10/05 12:02:18;;;;;;;2.22;0.85;;;19.20;99.90;;;;;;5014188;28;20061;-70
2021/10/05 12:04:49;;;;;;;2.55;0.60;;;19.20;99.90;;;;;;5013804;28;20499;-71
2021/10/05 12:07:19;;;;;;;3.92;0.90;;;19.20;99.90;;;;;;5013874;28;20034;-71
2021/10/05 12:09:57;;;;;;;3.20;0.80;;;19.20;99.90;;;;;;5013650;28;20029;-70
2021/10/05 12:12:25;;;;;;;2.05;0.60;;;19.30;99.90;;;;;;5014198;28;20022;-70
2021/10/05 12:14:57;;;;;;;2.58;0.80;;;19.30;99.90;;;;;;5014048;28;20477;-70
2021/10/05 12:17:24;;;;;;;2.30;0.80;;;19.40;99.90;;;;;;5014102;28;20037;-69
2021/10/05 12:19:55;;;;;;;1.30;0.60;;;19.40;99.90;;;;;;5013588;28;20037;-69
2021/10/05 12:22:28;;;;;;;2.22;0.70;;;19.40;99.90;;;;;;5013977;28;20033;-68
2021/10/05 12:25:17;;;;;;;2.22;0.55;;;19.40;99.90;;;;;;5013816;28;20045;-68
2021/10/05 12:27:48;;;;;;;2.22;0.70;;;19.40;99.90;;;;;;5013354;28;20458;-68
2021/10/05 12:30:19;;;;;;;2.10;0.68;;;19.40;99.90;;;;;;4997063;28;20398;-68
2021/10/05 12:32:48;;;;;;;2.08;0.57;;;19.50;99.90;;;;;;4993694;28;20057;-70
2021/10/05 12:35:29;;;;;;;2.55;0.60;;;19.50;99.90;;;;;;4993910;28;20367;-69
2021/10/05 12:38:17;;;;;;;2.08;0.70;;;19.50;99.90;;;;;;4994261;28;20030;-70
2021/10/05 12:40:55;;;;;;;3.28;0.90;;;19.50;99.90;;;;;;5000031;28;20038;-69
2021/10/05 12:43:36;;;;;;;3.08;0.70;;;19.60;99.90;;;;;;5003219;28;20022;-68
2021/10/05 12:46:07;;;;;;;3.78;0.63;;;19.60;99.90;;;;;;4993719;28;20022;-71
2021/10/05 12:48:36;;;;;;;2.15;0.57;;;19.60;99.90;;;;;;4993429;28;20026;-72
2021/10/05 12:51:12;;;;;;;2.55;0.50;;;19.60;99.90;;;;;;4993497;28;20125;-70